createdAt,value
2017-05-23T00:00:34.986Z,985.39
2017-05-23T00:01:45.250Z,985.37
2017-05-23T00:02:55.199Z,985.37
2017-05-23T00:04:05.399Z,985.35
2017-05-23T00:05:15.106Z,985.36
2017-05-23T00:06:25.113Z,985.32
2017-05-23T00:07:35.371Z,985.33
2017-05-23T00:08:45.639Z,985.33
2017-05-23T00:09:55.901Z,985.32
2017-05-23T00:11:06.160Z,985.32
2017-05-23T00:12:16.433Z,985.34
2017-05-23T00:13:26.692Z,985.34
2017-05-23T00:14:36.951Z,985.34
2017-05-23T00:15:47.213Z,985.34
2017-05-23T00:16:57.475Z,985.29
2017-05-23T00:18:07.746Z,985.27
2017-05-23T00:19:18.007Z,985.28
2017-05-23T00:20:27.960Z,985.25
2017-05-23T00:21:38.230Z,985.29
2017-05-23T00:22:48.490Z,985.31
2017-05-23T00:23:58.435Z,985.3
2017-05-23T00:25:08.738Z,985.29
2017-05-23T00:26:18.999Z,985.31
2017-05-23T00:27:29.257Z,985.31
2017-05-23T00:28:39.205Z,985.31
2017-05-23T00:29:49.477Z,985.3
2017-05-23T00:30:59.738Z,985.33
2017-05-23T00:32:10.000Z,985.35
2017-05-23T00:33:20.320Z,985.32
2017-05-23T00:34:30.585Z,985.35
2017-05-23T00:35:40.533Z,985.34
2017-05-23T00:36:50.793Z,985.36
2017-05-23T00:38:00.732Z,985.35
2017-05-23T00:39:11.063Z,985.37
2017-05-23T00:40:21.016Z,985.35
2017-05-23T00:41:31.269Z,985.32
2017-05-23T00:42:41.523Z,985.31
2017-05-23T00:43:51.788Z,985.31
2017-05-23T00:45:01.739Z,985.33
2017-05-23T00:46:12.001Z,985.33
2017-05-23T00:47:22.261Z,985.3
2017-05-23T00:48:32.521Z,985.31
2017-05-23T00:49:42.783Z,985.34
2017-05-23T00:50:53.042Z,985.29
2017-05-23T00:52:03.305Z,985.37
2017-05-23T00:53:13.248Z,985.3
2017-05-23T00:54:23.201Z,985.34
2017-05-23T00:55:33.465Z,985.35
2017-05-23T00:56:43.725Z,985.35
2017-05-23T00:57:53.664Z,985.36
2017-05-23T00:59:03.929Z,985.33
2017-05-23T01:00:13.872Z,985.33
2017-05-23T01:01:23.812Z,985.32
2017-05-23T01:02:34.083Z,985.29
2017-05-23T01:03:44.352Z,985.32
2017-05-23T01:04:54.296Z,985.33
2017-05-23T01:06:04.242Z,985.3
2017-05-23T01:07:14.507Z,985.31
2017-05-23T01:08:24.145Z,985.32
2017-05-23T01:09:34.405Z,985.33
2017-05-23T01:10:44.673Z,985.32
2017-05-23T01:11:54.939Z,985.3
2017-05-23T01:13:05.204Z,985.3
2017-05-23T01:14:15.462Z,985.29
2017-05-23T01:15:25.724Z,985.33
2017-05-23T01:16:36.049Z,985.32
2017-05-23T01:17:46.305Z,985.36
2017-05-23T01:18:56.564Z,985.31
2017-05-23T01:20:06.827Z,985.31
2017-05-23T01:21:17.086Z,985.33
2017-05-23T01:22:27.346Z,985.33
2017-05-23T01:23:37.605Z,985.34
2017-05-23T01:24:47.869Z,985.34
2017-05-23T01:25:58.138Z,985.35
2017-05-23T01:27:08.393Z,985.37
2017-05-23T01:28:18.710Z,985.35
2017-05-23T01:29:28.976Z,985.35
2017-05-23T01:30:39.243Z,985.35
2017-05-23T01:31:49.187Z,985.34
2017-05-23T01:32:59.448Z,985.36
2017-05-23T01:34:09.716Z,985.36
2017-05-23T01:35:19.975Z,985.32
2017-05-23T01:36:30.234Z,985.3
2017-05-23T01:37:40.174Z,985.28
2017-05-23T01:38:50.445Z,985.29
2017-05-23T01:40:00.701Z,985.3
2017-05-23T01:41:10.974Z,985.32
2017-05-23T01:42:21.230Z,985.34
2017-05-23T01:43:31.491Z,985.29
2017-05-23T01:44:41.756Z,985.32
2017-05-23T01:45:52.013Z,985.34
2017-05-23T01:47:02.280Z,985.32
2017-05-23T01:48:12.537Z,985.35
2017-05-23T01:49:22.485Z,985.34
2017-05-23T01:50:32.749Z,985.33
2017-05-23T01:51:43.005Z,985.35
2017-05-23T01:52:53.328Z,985.33
2017-05-23T01:54:03.584Z,985.34
2017-05-23T01:55:13.544Z,985.33
2017-05-23T01:56:23.495Z,985.35
2017-05-23T01:57:33.772Z,985.38
2017-05-23T01:58:43.725Z,985.34
2017-05-23T01:59:53.979Z,985.37
2017-05-23T02:01:03.932Z,985.32
2017-05-23T02:02:14.195Z,985.32
2017-05-23T02:03:24.138Z,985.34
2017-05-23T02:04:34.396Z,985.39
2017-05-23T02:05:44.655Z,985.34
2017-05-23T02:06:54.910Z,985.33
2017-05-23T02:08:05.162Z,985.35
2017-05-23T02:09:15.112Z,985.35
2017-05-23T02:10:24.742Z,985.32
2017-05-23T02:11:34.996Z,985.32
2017-05-23T02:12:47.257Z,985.35
2017-05-23T02:13:57.557Z,985.34
2017-05-23T02:15:07.507Z,985.34
2017-05-23T02:16:17.764Z,985.38
2017-05-23T02:17:28.018Z,985.34
2017-05-23T02:18:38.281Z,985.33
2017-05-23T02:19:48.236Z,985.33
2017-05-23T02:20:58.496Z,985.34
2017-05-23T02:22:08.765Z,985.33
2017-05-23T02:23:19.023Z,985.33
2017-05-23T02:24:29.289Z,985.34
2017-05-23T02:25:39.234Z,985.35
2017-05-23T02:26:49.182Z,985.34
2017-05-23T02:27:59.434Z,985.32
2017-05-23T02:29:09.386Z,985.31
2017-05-23T02:30:19.951Z,985.3
2017-05-23T02:31:30.212Z,985.27
2017-05-23T02:32:40.471Z,985.29
2017-05-23T02:33:50.413Z,985.31
2017-05-23T02:35:00.672Z,985.24
2017-05-23T02:36:10.944Z,985.24
2017-05-23T02:37:21.275Z,985.23
2017-05-23T02:38:31.221Z,985.28
2017-05-23T02:39:41.478Z,985.26
2017-05-23T02:40:51.418Z,985.27
2017-05-23T02:42:01.932Z,985.27
2017-05-23T02:43:11.881Z,985.28
2017-05-23T02:44:22.145Z,985.28
2017-05-23T02:45:32.092Z,985.32
2017-05-23T02:46:42.347Z,985.31
2017-05-23T02:47:54.615Z,985.28
2017-05-23T02:49:04.877Z,985.31
2017-05-23T02:50:15.146Z,985.28
2017-05-23T02:51:25.401Z,985.28
2017-05-23T02:52:35.654Z,985.31
2017-05-23T02:53:45.908Z,985.3
2017-05-23T02:54:56.173Z,985.26
2017-05-23T02:56:06.121Z,985.31
2017-05-23T02:57:16.084Z,985.28
2017-05-23T02:58:26.343Z,985.31
2017-05-23T02:59:36.603Z,985.31
2017-05-23T03:00:46.236Z,985.29
2017-05-23T03:01:56.180Z,985.27
2017-05-23T03:03:06.441Z,985.24
2017-05-23T03:04:16.710Z,985.23
2017-05-23T03:05:26.714Z,985.22
2017-05-23T03:06:36.662Z,985.23
2017-05-23T03:07:46.604Z,985.23
2017-05-23T03:08:56.866Z,985.21
2017-05-23T03:10:07.127Z,985.18
2017-05-23T03:11:17.391Z,985.18
2017-05-23T03:12:27.039Z,985.18
2017-05-23T03:13:37.300Z,985.18
2017-05-23T03:14:47.245Z,985.19
2017-05-23T03:15:56.894Z,985.16
2017-05-23T03:17:09.360Z,985.19
2017-05-23T03:18:19.674Z,985.14
2017-05-23T03:19:29.616Z,985.15
2017-05-23T03:20:39.876Z,985.15
2017-05-23T03:21:50.125Z,985.13
2017-05-23T03:23:00.067Z,985.13
2017-05-23T03:24:10.328Z,985.1
2017-05-23T03:25:20.272Z,985.09
2017-05-23T03:26:30.533Z,985.11
2017-05-23T03:27:40.804Z,985.13
2017-05-23T03:28:51.065Z,985.07
2017-05-23T03:30:00.697Z,985.13
2017-05-23T03:31:11.017Z,985.07
2017-05-23T03:32:20.964Z,985.09
2017-05-23T03:33:30.602Z,985.11
2017-05-23T03:34:40.541Z,985.08
2017-05-23T03:35:50.486Z,985.09
2017-05-23T03:37:00.738Z,985.04
2017-05-23T03:38:10.686Z,985.04
2017-05-23T03:39:20.953Z,985.02
2017-05-23T03:40:31.210Z,985.03
2017-05-23T03:41:41.469Z,985.02
2017-05-23T03:42:51.768Z,985.03
2017-05-23T03:44:02.030Z,985.03
2017-05-23T03:45:11.974Z,984.99
2017-05-23T03:46:22.236Z,985
2017-05-23T03:47:32.495Z,985.03
2017-05-23T03:48:42.763Z,985.06
2017-05-23T03:49:52.710Z,984.99
2017-05-23T03:51:02.969Z,985.02
2017-05-23T03:52:13.226Z,985
2017-05-23T03:53:23.168Z,985.02
2017-05-23T03:54:33.112Z,985.05
2017-05-23T03:55:43.369Z,985.05
2017-05-23T03:56:53.626Z,985.08
2017-05-23T03:58:03.895Z,985.12
2017-05-23T03:59:13.839Z,985.09
2017-05-23T04:00:24.095Z,985.12
2017-05-23T04:01:34.357Z,985.08
2017-05-23T04:02:44.299Z,985.11
2017-05-23T04:03:54.252Z,985.1
2017-05-23T04:05:04.512Z,985.1
2017-05-23T04:06:14.767Z,985.08
2017-05-23T04:07:25.032Z,985.11
2017-05-23T04:08:35.302Z,985.11
2017-05-23T04:09:45.567Z,985.13
2017-05-23T04:10:55.825Z,985.17
2017-05-23T04:12:06.092Z,985.14
2017-05-23T04:13:16.035Z,985.18
2017-05-23T04:14:26.295Z,985.16
2017-05-23T04:15:36.635Z,985.21
2017-05-23T04:16:46.581Z,985.16
2017-05-23T04:17:56.525Z,985.15
2017-05-23T04:19:06.468Z,985.18
2017-05-23T04:20:16.733Z,985.18
2017-05-23T04:21:26.993Z,985.21
2017-05-23T04:22:37.247Z,985.22
2017-05-23T04:23:46.879Z,985.22
2017-05-23T04:24:57.135Z,985.22
2017-05-23T04:26:07.398Z,985.22
2017-05-23T04:27:17.341Z,985.23
2017-05-23T04:28:27.600Z,985.2
2017-05-23T04:29:37.855Z,985.2
2017-05-23T04:30:48.115Z,985.15
2017-05-23T04:31:58.371Z,985.16
2017-05-23T04:33:08.325Z,985.18
2017-05-23T04:34:18.279Z,985.2
2017-05-23T04:35:28.544Z,985.19
2017-05-23T04:36:38.808Z,985.22
2017-05-23T04:37:48.754Z,985.18
2017-05-23T04:38:58.698Z,985.18
2017-05-23T04:40:08.957Z,985.19
2017-05-23T04:41:19.223Z,985.19
2017-05-23T04:42:29.169Z,985.17
2017-05-23T04:43:39.435Z,985.13
2017-05-23T04:44:49.710Z,985.15
2017-05-23T04:45:59.986Z,985.18
2017-05-23T04:47:09.945Z,985.14
2017-05-23T04:48:20.209Z,985.22
2017-05-23T04:49:30.158Z,985.17
2017-05-23T04:50:40.420Z,985.15
2017-05-23T04:51:50.689Z,985.13
2017-05-23T04:53:00.947Z,985.13
2017-05-23T04:54:11.220Z,985.16
2017-05-23T04:55:20.866Z,985.11
2017-05-23T04:56:31.133Z,985.16
2017-05-23T04:57:41.402Z,985.13
2017-05-23T04:58:51.678Z,985.13
2017-05-23T05:00:01.936Z,985.13
2017-05-23T05:01:12.214Z,985.13
2017-05-23T05:02:22.479Z,985.19
2017-05-23T05:03:32.431Z,985.19
2017-05-23T05:04:42.376Z,985.18
2017-05-23T05:05:52.640Z,985.18
2017-05-23T05:07:01.959Z,985.13
2017-05-23T05:08:12.224Z,985.1
2017-05-23T05:09:22.494Z,985.11
2017-05-23T05:10:32.446Z,985.13
2017-05-23T05:11:42.715Z,985.13
2017-05-23T05:12:52.658Z,985.16
2017-05-23T05:14:02.666Z,985.11
2017-05-23T05:15:12.613Z,985.13
2017-05-23T05:16:22.867Z,985.11
2017-05-23T05:17:32.873Z,985.08
2017-05-23T05:18:42.827Z,985.12
2017-05-23T05:19:53.089Z,985.09
2017-05-23T05:21:03.035Z,985.09
2017-05-23T05:22:13.296Z,985.11
2017-05-23T05:23:23.555Z,985.07
2017-05-23T05:24:33.504Z,985.06
2017-05-23T05:25:43.762Z,985.06
2017-05-23T05:26:53.711Z,985.03
2017-05-23T05:28:03.658Z,985.03
2017-05-23T05:29:13.604Z,985.05
2017-05-23T05:30:23.553Z,985.05
2017-05-23T05:31:33.814Z,985.03
2017-05-23T05:32:44.079Z,985.02
2017-05-23T05:33:53.721Z,985.02
2017-05-23T05:35:03.983Z,984.99
2017-05-23T05:36:13.929Z,985.02
2017-05-23T05:37:24.193Z,985.02
2017-05-23T05:38:34.453Z,985.01
2017-05-23T05:39:44.720Z,985
2017-05-23T05:40:54.673Z,984.98
2017-05-23T05:42:04.629Z,984.97
2017-05-23T05:43:14.575Z,984.97
2017-05-23T05:44:24.834Z,984.98
2017-05-23T05:45:34.791Z,984.92
2017-05-23T05:46:44.744Z,984.95
2017-05-23T05:47:54.697Z,984.88
2017-05-23T05:49:04.326Z,984.95
2017-05-23T05:50:14.588Z,984.86
2017-05-23T05:51:24.227Z,984.89
2017-05-23T05:52:34.486Z,984.88
2017-05-23T05:53:44.754Z,984.86
2017-05-23T05:54:54.716Z,984.86
2017-05-23T05:56:04.988Z,984.9
2017-05-23T05:57:14.940Z,984.91
2017-05-23T05:58:24.887Z,984.94
2017-05-23T05:59:34.843Z,984.96
2017-05-23T06:00:45.108Z,984.99
2017-05-23T06:01:55.363Z,984.99
2017-05-23T06:03:05.311Z,985
2017-05-23T06:04:15.577Z,984.98
2017-05-23T06:05:25.841Z,984.98
2017-05-23T06:06:35.796Z,984.98
2017-05-23T06:07:46.060Z,984.96
2017-05-23T06:08:56.326Z,984.96
2017-05-23T06:10:06.592Z,984.99
2017-05-23T06:11:15.921Z,984.99
2017-05-23T06:12:25.865Z,984.99
2017-05-23T06:13:36.127Z,984.98
2017-05-23T06:14:46.389Z,984.97
2017-05-23T06:15:56.653Z,984.98
2017-05-23T06:17:06.919Z,984.94
2017-05-23T06:18:16.869Z,984.95
2017-05-23T06:19:27.138Z,984.98
2017-05-23T06:20:37.405Z,984.96
2017-05-23T06:21:47.666Z,984.99
2017-05-23T06:22:57.932Z,984.97
2017-05-23T06:24:07.880Z,984.96
2017-05-23T06:25:18.150Z,984.96
2017-05-23T06:26:27.783Z,984.94
2017-05-23T06:27:37.414Z,984.96
2017-05-23T06:28:47.681Z,984.93
2017-05-23T06:29:57.631Z,984.93
2017-05-23T06:31:07.273Z,984.96
2017-05-23T06:32:17.225Z,984.93
2017-05-23T06:33:27.481Z,984.97
2017-05-23T06:34:37.749Z,984.98
2017-05-23T06:35:47.706Z,985
2017-05-23T06:36:57.656Z,985.02
2017-05-23T06:38:07.919Z,985.01
2017-05-23T06:39:17.872Z,985.03
2017-05-23T06:40:27.823Z,985.02
2017-05-23T06:41:37.777Z,985.02
2017-05-23T06:42:47.727Z,984.96
2017-05-23T06:43:57.367Z,985
2017-05-23T06:45:07.629Z,985.01
2017-05-23T06:46:17.895Z,985
2017-05-23T06:47:27.529Z,985.04
2017-05-23T06:48:37.475Z,985.01
2017-05-23T06:49:47.440Z,985.03
2017-05-23T06:50:57.710Z,984.98
2017-05-23T06:52:07.977Z,984.99
2017-05-23T06:53:17.922Z,984.98
2017-05-23T06:54:27.878Z,984.97
2017-05-23T06:55:38.145Z,984.92
2017-05-23T06:56:48.405Z,984.93
2017-05-23T06:57:58.668Z,984.96
2017-05-23T06:59:08.942Z,984.96
2017-05-23T07:00:18.892Z,984.95
2017-05-23T07:01:29.149Z,984.95
2017-05-23T07:02:39.098Z,984.89
2017-05-23T07:03:49.362Z,984.89
2017-05-23T07:04:59.315Z,984.88
2017-05-23T07:06:08.949Z,984.92
2017-05-23T07:07:19.212Z,984.9
2017-05-23T07:08:29.473Z,984.9
2017-05-23T07:09:39.108Z,984.87
2017-05-23T07:10:49.366Z,984.86
2017-05-23T07:11:59.314Z,984.85
2017-05-23T07:13:09.583Z,984.87
2017-05-23T07:14:19.229Z,984.85
2017-05-23T07:15:29.487Z,984.84
2017-05-23T07:16:39.431Z,984.85
2017-05-23T07:17:49.691Z,984.81
2017-05-23T07:18:59.952Z,984.79
2017-05-23T07:20:09.901Z,984.83
2017-05-23T07:21:19.539Z,984.83
2017-05-23T07:22:29.800Z,984.81
2017-05-23T07:23:39.749Z,984.8
2017-05-23T07:24:49.384Z,984.78
2017-05-23T07:25:59.648Z,984.76
2017-05-23T07:27:09.599Z,984.77
2017-05-23T07:28:19.862Z,984.75
2017-05-23T07:29:30.125Z,984.73
2017-05-23T07:30:40.086Z,984.74
2017-05-23T07:31:49.722Z,984.75
2017-05-23T07:32:59.986Z,984.75
2017-05-23T07:34:10.006Z,984.69
2017-05-23T07:35:19.959Z,984.72
2017-05-23T07:36:29.597Z,984.68
2017-05-23T07:37:39.236Z,984.65
2017-05-23T07:38:49.502Z,984.65
2017-05-23T07:39:59.462Z,984.65
2017-05-23T07:41:09.729Z,984.68
2017-05-23T07:42:19.367Z,984.63
2017-05-23T07:43:29.632Z,984.61
2017-05-23T07:44:39.897Z,984.62
2017-05-23T07:45:49.853Z,984.56
2017-05-23T07:46:59.800Z,984.6
2017-05-23T07:48:10.064Z,984.57
2017-05-23T07:49:20.026Z,984.58
2017-05-23T07:50:29.979Z,984.56
2017-05-23T07:51:40.241Z,984.56
2017-05-23T07:52:50.195Z,984.58
2017-05-23T07:54:00.488Z,984.59
2017-05-23T07:55:10.126Z,984.59
2017-05-23T07:56:20.077Z,984.55
2017-05-23T07:57:30.026Z,984.59
2017-05-23T07:58:39.993Z,984.57
2017-05-23T07:59:49.946Z,984.59
2017-05-23T08:00:59.902Z,984.57
2017-05-23T08:02:10.174Z,984.54
2017-05-23T08:03:20.128Z,984.54
2017-05-23T08:04:29.856Z,984.47
2017-05-23T08:05:40.633Z,984.51
2017-05-23T08:06:50.666Z,984.48
2017-05-23T08:08:00.696Z,984.47
2017-05-23T08:09:10.020Z,984.46
2017-05-23T08:10:19.968Z,984.43
2017-05-23T08:11:29.296Z,984.41
2017-05-23T08:12:39.245Z,984.4
2017-05-23T08:13:49.515Z,984.42
2017-05-23T08:14:59.794Z,984.41
2017-05-23T08:16:10.061Z,984.46
2017-05-23T08:17:20.011Z,984.43
2017-05-23T08:18:30.007Z,984.37
2017-05-23T08:19:39.959Z,984.38
2017-05-23T08:20:50.236Z,984.43
2017-05-23T08:22:00.183Z,984.4
2017-05-23T08:23:09.816Z,984.36
2017-05-23T08:24:19.774Z,984.35
2017-05-23T08:25:30.042Z,984.32
2017-05-23T08:26:39.988Z,984.3
2017-05-23T08:27:49.625Z,984.3
2017-05-23T08:28:59.892Z,984.28
2017-05-23T08:30:09.841Z,984.3
2017-05-23T08:31:19.794Z,984.28
2017-05-23T08:32:30.063Z,984.29
2017-05-23T08:33:40.025Z,984.26
2017-05-23T08:34:50.292Z,984.25
2017-05-23T08:35:59.937Z,984.25
2017-05-23T08:37:09.887Z,984.25
2017-05-23T08:38:19.527Z,984.23
2017-05-23T08:39:29.485Z,984.23
2017-05-23T08:40:39.782Z,984.25
2017-05-23T08:41:49.420Z,984.25
2017-05-23T08:42:59.373Z,984.25
2017-05-23T08:44:09.340Z,984.24
2017-05-23T08:45:19.296Z,984.26
2017-05-23T08:46:29.246Z,984.26
2017-05-23T08:47:39.515Z,984.21
2017-05-23T08:48:49.804Z,984.19
2017-05-23T08:50:00.074Z,984.2
2017-05-23T08:51:10.337Z,984.17
2017-05-23T08:52:19.970Z,984.16
2017-05-23T08:53:30.237Z,984.2
2017-05-23T08:54:39.879Z,984.18
2017-05-23T08:55:49.515Z,984.18
2017-05-23T08:56:59.774Z,984.19
2017-05-23T08:58:10.034Z,984.17
2017-05-23T08:59:20.302Z,984.16
2017-05-23T09:00:30.573Z,984.14
2017-05-23T09:01:40.835Z,984.15
2017-05-23T09:02:50.790Z,984.15
2017-05-23T09:04:01.053Z,984.15
2017-05-23T09:05:11.011Z,984.15
2017-05-23T09:06:20.642Z,984.18
2017-05-23T09:07:30.900Z,984.13
2017-05-23T09:08:41.169Z,984.12
2017-05-23T09:09:51.119Z,984.09
2017-05-23T09:11:01.382Z,984.09
2017-05-23T09:12:11.647Z,984.11
2017-05-23T09:13:21.593Z,984.12
2017-05-23T09:14:31.858Z,984.09
2017-05-23T09:15:41.810Z,984.08
2017-05-23T09:16:52.077Z,984.08
2017-05-23T09:18:02.346Z,984.04
2017-05-23T09:19:12.308Z,984.06
2017-05-23T09:20:22.574Z,984.06
2017-05-23T09:21:32.840Z,984.07
2017-05-23T09:22:43.105Z,983.99
2017-05-23T09:23:53.056Z,983.99
2017-05-23T09:25:02.694Z,984.02
2017-05-23T09:26:12.961Z,984.01
2017-05-23T09:27:23.227Z,984.01
2017-05-23T09:28:32.868Z,983.98
2017-05-23T09:29:42.510Z,983.97
2017-05-23T09:30:52.780Z,983.94
2017-05-23T09:32:02.422Z,983.94
2017-05-23T09:33:12.378Z,983.93
2017-05-23T09:34:22.333Z,983.93
2017-05-23T09:35:32.595Z,983.93
2017-05-23T09:36:41.602Z,983.94
2017-05-23T09:37:51.556Z,983.96
2017-05-23T09:39:01.822Z,983.93
2017-05-23T09:40:11.529Z,983.95
2017-05-23T09:41:21.794Z,983.94
2017-05-23T09:42:32.061Z,983.9
2017-05-23T09:43:41.388Z,983.98
2017-05-23T09:44:51.654Z,983.95
2017-05-23T09:46:01.934Z,983.93
2017-05-23T09:47:11.895Z,983.92
2017-05-23T09:48:22.163Z,983.93
2017-05-23T09:49:32.118Z,983.87
2017-05-23T09:50:42.389Z,983.88
2017-05-23T09:51:52.649Z,983.87
2017-05-23T09:53:02.601Z,983.84
2017-05-23T09:54:12.243Z,983.86
2017-05-23T09:55:22.509Z,983.9
2017-05-23T09:56:32.461Z,983.85
2017-05-23T09:57:42.411Z,983.86
2017-05-23T09:58:52.677Z,983.86
2017-05-23T10:00:02.632Z,983.84
2017-05-23T10:01:12.279Z,983.84
2017-05-23T10:02:22.229Z,983.88
2017-05-23T10:03:32.178Z,983.84
2017-05-23T10:04:41.821Z,983.82
2017-05-23T10:05:52.085Z,983.84
2017-05-23T10:07:02.353Z,983.83
2017-05-23T10:08:11.994Z,983.83
2017-05-23T10:09:21.948Z,983.83
2017-05-23T10:10:32.211Z,983.85
2017-05-23T10:11:41.866Z,983.78
2017-05-23T10:12:51.816Z,983.77
2017-05-23T10:14:02.078Z,983.74
2017-05-23T10:15:12.038Z,983.72
2017-05-23T10:16:21.674Z,983.73
2017-05-23T10:17:31.617Z,983.7
2017-05-23T10:18:41.575Z,983.68
2017-05-23T10:19:51.526Z,983.69
2017-05-23T10:21:01.475Z,983.71
2017-05-23T10:22:11.738Z,983.71
2017-05-23T10:23:21.701Z,983.7
2017-05-23T10:24:31.649Z,983.63
2017-05-23T10:25:41.623Z,983.63
2017-05-23T10:26:51.890Z,983.6
2017-05-23T10:28:01.839Z,983.59
2017-05-23T10:29:11.839Z,983.55
2017-05-23T10:30:21.794Z,983.6
2017-05-23T10:31:32.061Z,983.55
2017-05-23T10:32:42.011Z,983.6
2017-05-23T10:33:52.276Z,983.55
2017-05-23T10:35:02.548Z,983.55
2017-05-23T10:36:12.503Z,983.57
2017-05-23T10:37:22.465Z,983.59
2017-05-23T10:38:32.735Z,983.55
2017-05-23T10:39:42.692Z,983.57
2017-05-23T10:40:52.969Z,983.56
2017-05-23T10:42:03.238Z,983.57
2017-05-23T10:43:13.509Z,983.57
2017-05-23T10:44:23.147Z,983.56
2017-05-23T10:45:33.109Z,983.5
2017-05-23T10:46:43.067Z,983.49
2017-05-23T10:47:53.346Z,983.48
2017-05-23T10:49:03.626Z,983.44
2017-05-23T10:50:12.953Z,983.42
2017-05-23T10:51:22.907Z,983.37
2017-05-23T10:52:32.859Z,983.37
2017-05-23T10:53:42.818Z,983.41
2017-05-23T10:54:53.094Z,983.39
2017-05-23T10:56:02.731Z,983.38
2017-05-23T10:57:12.689Z,983.41
2017-05-23T10:58:22.325Z,983.4
2017-05-23T10:59:31.971Z,983.41
2017-05-23T11:00:42.245Z,983.38
2017-05-23T11:01:52.515Z,983.37
2017-05-23T11:03:02.467Z,983.36
2017-05-23T11:04:12.740Z,983.32
2017-05-23T11:05:22.690Z,983.38
2017-05-23T11:06:32.648Z,983.37
2017-05-23T11:07:42.284Z,983.35
2017-05-23T11:08:52.563Z,983.34
2017-05-23T11:10:02.833Z,983.3
2017-05-23T11:11:12.790Z,983.31
2017-05-23T11:12:23.056Z,983.29
2017-05-23T11:13:33.013Z,983.24
2017-05-23T11:14:42.656Z,983.29
2017-05-23T11:15:52.932Z,983.27
2017-05-23T11:17:03.213Z,983.25
2017-05-23T11:18:13.168Z,983.29
2017-05-23T11:19:23.435Z,983.3
2017-05-23T11:20:33.704Z,983.32
2017-05-23T11:21:43.973Z,983.29
2017-05-23T11:22:53.923Z,983.25
2017-05-23T11:24:04.191Z,983.24
2017-05-23T11:25:14.468Z,983.25
2017-05-23T11:26:24.424Z,983.28
2017-05-23T11:27:34.380Z,983.29
2017-05-23T11:28:44.656Z,983.32
2017-05-23T11:29:54.940Z,983.37
2017-05-23T11:31:05.215Z,983.39
2017-05-23T11:32:15.486Z,983.49
2017-05-23T11:33:25.449Z,983.54
2017-05-23T11:34:35.407Z,983.58
2017-05-23T11:35:45.687Z,983.53
2017-05-23T11:36:55.645Z,983.5
2017-05-23T11:38:05.919Z,983.46
2017-05-23T11:39:15.878Z,983.42
2017-05-23T11:40:25.838Z,983.45
2017-05-23T11:41:35.794Z,983.46
2017-05-23T11:42:45.128Z,983.45
2017-05-23T11:43:55.418Z,983.36
2017-05-23T11:45:05.380Z,983.34
2017-05-23T11:46:14.708Z,983.34
2017-05-23T11:47:24.986Z,983.4
2017-05-23T11:48:35.270Z,983.41
2017-05-23T11:49:45.236Z,983.35
2017-05-23T11:50:55.197Z,983.35
2017-05-23T11:52:05.166Z,983.38
2017-05-23T11:53:15.450Z,983.32
2017-05-23T11:54:25.729Z,983.28
2017-05-23T11:55:35.698Z,983.3
2017-05-23T11:56:45.674Z,983.31
2017-05-23T11:57:55.638Z,983.17
2017-05-23T11:59:05.290Z,983.2
2017-05-23T12:00:15.573Z,983.22
2017-05-23T12:01:25.537Z,983.23
2017-05-23T12:02:35.817Z,983.22
2017-05-23T12:03:46.108Z,983.23
2017-05-23T12:04:55.763Z,983.23
2017-05-23T12:06:05.419Z,983.22
2017-05-23T12:07:15.708Z,983.28
2017-05-23T12:08:25.107Z,983.22
2017-05-23T12:09:35.395Z,983.23
2017-05-23T12:10:45.686Z,983.17
2017-05-23T12:11:55.656Z,983.2
2017-05-23T12:13:05.315Z,983.17
2017-05-23T12:14:14.977Z,983.14
2017-05-23T12:15:25.262Z,983.08
2017-05-23T12:16:35.553Z,983.07
2017-05-23T12:17:45.844Z,983.07
2017-05-23T12:18:56.149Z,983.07
2017-05-23T12:20:06.443Z,983.03
2017-05-23T12:21:16.100Z,983.08
2017-05-23T12:22:26.387Z,983.07
2017-05-23T12:23:36.359Z,983.07
2017-05-23T12:24:46.338Z,983.06
2017-05-23T12:25:56.619Z,982.99
2017-05-23T12:27:06.591Z,982.93
2017-05-23T12:28:16.256Z,982.96
2017-05-23T12:29:26.553Z,983
2017-05-23T12:30:36.522Z,983.04
2017-05-23T12:31:46.176Z,983.01
2017-05-23T12:32:56.466Z,983.03
2017-05-23T12:34:06.762Z,983.03
2017-05-23T12:35:16.424Z,982.98
2017-05-23T12:36:26.721Z,982.97
2017-05-23T12:37:36.743Z,982.93
2017-05-23T12:38:47.039Z,983.06
2017-05-23T12:39:56.755Z,982.96
2017-05-23T12:41:06.727Z,983.06
2017-05-23T12:42:16.699Z,983.06
2017-05-23T12:43:26.988Z,983.07
2017-05-23T12:44:36.967Z,983.02
2017-05-23T12:45:46.628Z,983
2017-05-23T12:46:56.919Z,982.94
2017-05-23T12:48:06.584Z,982.9
2017-05-23T12:49:16.558Z,982.91
2017-05-23T12:50:26.528Z,982.94
2017-05-23T12:51:36.818Z,982.91
2017-05-23T12:52:47.115Z,982.92
2017-05-23T12:53:57.409Z,982.94
2017-05-23T12:55:07.078Z,982.9
2017-05-23T12:56:16.741Z,982.85
2017-05-23T12:57:27.029Z,982.83
2017-05-23T12:58:37.004Z,982.92
2017-05-23T12:59:46.659Z,982.83
2017-05-23T13:00:56.947Z,982.8
2017-05-23T13:02:07.235Z,982.8
2017-05-23T13:03:17.211Z,982.78
2017-05-23T13:04:27.189Z,982.87
2017-05-23T13:05:37.481Z,982.9
2017-05-23T13:06:47.467Z,982.91
2017-05-23T13:07:57.122Z,982.76
2017-05-23T13:09:07.414Z,982.69
2017-05-23T13:10:17.079Z,982.66
2017-05-23T13:11:27.054Z,982.82
2017-05-23T13:12:37.034Z,982.79
2017-05-23T13:13:47.016Z,982.64
2017-05-23T13:14:57.004Z,982.7
2017-05-23T13:16:06.977Z,982.61
2017-05-23T13:17:16.330Z,982.66
2017-05-23T13:18:26.605Z,982.58
2017-05-23T13:19:36.894Z,982.59
2017-05-23T13:20:46.002Z,982.67
2017-05-23T13:21:55.353Z,982.72
2017-05-23T13:23:05.329Z,982.65
2017-05-23T13:24:15.608Z,982.65
2017-05-23T13:25:25.594Z,982.69
2017-05-23T13:26:35.883Z,982.62
2017-05-23T13:27:46.176Z,982.68
2017-05-23T13:28:55.845Z,982.58
2017-05-23T13:30:05.814Z,982.69
2017-05-23T13:31:15.792Z,982.58
2017-05-23T13:32:25.777Z,982.64
2017-05-23T13:33:36.070Z,982.72
2017-05-23T13:34:46.360Z,982.5
2017-05-23T13:35:56.337Z,982.59
2017-05-23T13:37:06.316Z,982.61
2017-05-23T13:38:16.318Z,982.48
2017-05-23T13:39:26.307Z,982.48
2017-05-23T13:40:35.972Z,982.55
2017-05-23T13:41:45.949Z,982.48
2017-05-23T13:42:55.923Z,982.53
2017-05-23T13:44:05.579Z,982.47
2017-05-23T13:45:15.242Z,982.49
2017-05-23T13:46:25.222Z,982.5
2017-05-23T13:47:35.268Z,982.38
2017-05-23T13:48:45.244Z,982.39
2017-05-23T13:49:55.221Z,982.42
2017-05-23T13:51:05.510Z,982.45
2017-05-23T13:52:15.799Z,982.42
2017-05-23T13:53:25.769Z,982.43
2017-05-23T13:54:35.438Z,982.42
2017-05-23T13:55:45.730Z,982.53
2017-05-23T13:56:56.021Z,982.44
2017-05-23T13:58:05.376Z,982.53
2017-05-23T13:59:15.673Z,982.49
2017-05-23T14:00:25.976Z,982.56
2017-05-23T14:01:35.953Z,982.64
2017-05-23T14:02:46.240Z,982.65
2017-05-23T14:03:56.232Z,982.6
2017-05-23T14:05:06.517Z,982.63
2017-05-23T14:06:16.558Z,982.71
2017-05-23T14:07:26.852Z,982.77
2017-05-23T14:08:36.832Z,982.82
2017-05-23T14:09:47.125Z,982.83
2017-05-23T14:10:57.422Z,982.8
2017-05-23T14:12:07.403Z,982.81
2017-05-23T14:13:17.382Z,982.72
2017-05-23T14:14:27.666Z,982.75
2017-05-23T14:15:37.644Z,982.81
2017-05-23T14:16:47.932Z,982.77
2017-05-23T14:17:57.919Z,982.77
2017-05-23T14:19:07.907Z,982.82
2017-05-23T14:20:17.908Z,982.84
2017-05-23T14:21:28.197Z,982.82
2017-05-23T14:22:38.486Z,982.78
2017-05-23T14:23:48.460Z,982.8
2017-05-23T14:24:58.443Z,982.81
2017-05-23T14:26:08.420Z,982.81
2017-05-23T14:27:18.083Z,982.79
2017-05-23T14:28:28.056Z,982.73
2017-05-23T14:29:38.343Z,982.86
2017-05-23T14:30:48.324Z,982.82
2017-05-23T14:31:58.304Z,982.87
2017-05-23T14:33:07.964Z,982.86
2017-05-23T14:34:17.642Z,982.85
2017-05-23T14:35:27.942Z,982.85
2017-05-23T14:36:37.916Z,982.86
2017-05-23T14:37:47.887Z,982.86